Time;durP1;ratioP1;P1;durP2;ratioP2;P2;SDS_P1;SDS_P2;PMS_P1;PMS_P2;Temp;Humidity;BMP_temperature;BMP_pressure;BME280_temperature;BME280_humidity;BME280_pressure;Samples;Min_cycle;Max_cycle;Signal;HPM_P1;HPM_P2
2021/01/28 00:01:08;;;;;;;28.75;13.45;;;;;;;3.30;55.67;99589.44;5045735;28;20086;-72
2021/01/28 00:03:35;;;;;;;18.10;9.73;;;;;;;3.28;55.82;99588.63;5045523;28;20071;-71
2021/01/28 00:06:01;;;;;;;26.75;11.35;;;;;;;3.29;56.02;99591.16;5045951;28;20059;-74
2021/01/28 00:08:28;;;;;;;21.13;12.65;;;;;;;3.29;55.64;99591.16;5045242;28;20168;-73
2021/01/28 00:10:54;;;;;;;24.42;13.80;;;;;;;3.28;55.68;99589.50;5045459;28;20114;-72
2021/01/28 00:13:21;;;;;;;24.33;11.57;;;;;;;3.28;55.36;99583.41;5043871;28;20056;-73
2021/01/28 00:15:47;;;;;;;24.60;12.00;;;;;;;3.29;55.56;99583.34;5045527;28;20053;-73
2021/01/28 00:18:15;;;;;;;24.85;11.25;;;;;;;3.31;55.56;99588.47;5045347;28;20488;-72
2021/01/28 00:20:45;;;;;;;22.95;10.68;;;;;;;3.34;55.28;99585.72;5045750;28;20136;-73
2021/01/28 00:23:12;;;;;;;27.83;12.65;;;;;;;3.35;55.35;99585.66;5045754;28;20060;-74
2021/01/28 00:25:39;;;;;;;32.65;14.65;;;;;;;3.32;55.34;99579.75;5045035;28;20040;-72
2021/01/28 00:28:07;;;;;;;29.75;13.88;;;;;;;3.29;55.03;99574.69;5027671;28;20127;-72
2021/01/28 00:30:38;;;;;;;30.05;13.07;;;;;;;3.25;54.99;99577.44;5046252;28;20102;-73
2021/01/28 00:33:05;;;;;;;29.38;14.45;;;;;;;3.27;54.94;99569.53;5046019;28;20420;-74
2021/01/28 00:35:35;;;;;;;29.95;13.23;;;;;;;3.31;55.24;99575.44;5045699;28;20098;-72
2021/01/28 00:38:04;;;;;;;32.45;15.48;;;;;;;3.31;54.88;99567.59;5028263;28;20060;-74
2021/01/28 00:40:31;;;;;;;35.85;14.25;;;;;;;3.28;54.81;99565.16;5045418;28;20045;-73
2021/01/28 00:43:01;;;;;;;35.97;12.70;;;;;;;3.28;54.83;99563.41;5026522;28;20072;-75
2021/01/28 00:45:31;;;;;;;20.65;10.85;;;;;;;3.31;54.97;99559.78;5046310;28;20045;-74
2021/01/28 00:47:58;;;;;;;17.90;9.95;;;;;;;3.31;54.63;99567.59;5045908;28;20065;-73
2021/01/28 00:50:28;;;;;;;20.25;10.98;;;;;;;3.34;55.17;99564.84;5045155;28;20140;-72
2021/01/28 00:52:56;;;;;;;31.55;12.88;;;;;;;3.35;54.87;99563.91;5045938;28;20098;-73
2021/01/28 00:55:25;;;;;;;37.42;13.02;;;;;;;3.35;54.54;99556.94;5045199;28;20052;-72
2021/01/28 00:57:52;;;;;;;48.92;17.95;;;;;;;3.34;54.66;99560.44;5044643;28;20049;-72
2021/01/28 01:00:23;;;;;;;52.20;17.85;;;;;;;3.33;54.50;99560.53;5044294;28;20044;-71
2021/01/28 01:02:49;;;;;;;26.15;12.35;;;;;;;3.26;54.07;99560.03;5045218;28;20420;-72
2021/01/28 01:05:18;;;;;;;19.83;12.25;;;;;;;3.20;53.99;99561.19;5045326;28;20048;-72
2021/01/28 01:07:44;;;;;;;20.48;11.95;;;;;;;3.17;53.64;99557.88;5045920;28;20098;-73
2021/01/28 01:10:22;;;;;;;17.80;9.77;;;;;;;3.16;53.84;99556.22;5045822;28;20037;-74
2021/01/28 01:12:49;;;;;;;21.23;11.00;;;;;;;3.17;53.90;99556.16;5043872;28;20059;-72
2021/01/28 01:15:15;;;;;;;31.95;15.45;;;;;;;3.21;53.92;99562.03;5045029;28;20053;-74
2021/01/28 01:17:42;;;;;;;77.90;24.40;;;;;;;3.22;54.17;99558.50;5045156;28;20049;-71
2021/01/28 01:20:10;;;;;;;69.28;27.10;;;;;;;3.20;53.57;99547.31;5045390;28;20047;-74
2021/01/28 01:22:36;;;;;;;62.08;23.40;;;;;;;3.20;53.80;99553.34;5046834;28;20714;-76
2021/01/28 01:25:04;;;;;;;37.22;16.52;;;;;;;3.22;53.71;99548.91;5046289;28;20057;-71
2021/01/28 01:27:31;;;;;;;20.10;9.77;;;;;;;3.27;53.69;99547.81;5046452;28;20048;-72
2021/01/28 01:29:57;;;;;;;15.20;7.82;;;;;;;3.28;53.75;99546.88;5045904;28;20048;-75
2021/01/28 01:32:24;;;;;;;17.27;8.20;;;;;;;3.29;53.44;99549.41;5046372;28;20094;-77
2021/01/28 01:34:50;;;;;;;14.15;7.10;;;;;;;3.33;53.55;99543.13;5045344;28;20109;-74
2021/01/28 01:37:16;;;;;;;12.13;6.53;;;;;;;3.38;53.06;99540.25;5045472;28;20674;-74
2021/01/28 01:39:43;;;;;;;18.20;8.30;;;;;;;3.40;53.10;99543.59;5045716;28;20041;-70
2021/01/28 01:42:09;;;;;;;13.77;6.43;;;;;;;3.44;52.80;99530.31;5045594;28;20103;-71
2021/01/28 01:44:37;;;;;;;14.88;6.80;;;;;;;3.45;52.98;99529.38;5049595;28;20049;-77
2021/01/28 01:47:22;;;;;;;15.57;7.03;;;;;;;3.52;52.82;99526.44;5051255;28;20057;-71
2021/01/28 01:49:50;;;;;;;13.32;7.28;;;;;;;3.53;52.43;99520.28;5069431;28;20045;-79
2021/01/28 01:52:17;;;;;;;16.95;7.18;;;;;;;3.50;52.60;99516.09;5052341;28;20420;-73
2021/01/28 01:54:47;;;;;;;13.30;4.43;;;;;;;3.45;52.23;99516.31;5049974;28;20056;-75
2021/01/28 01:57:18;;;;;;;12.25;6.30;;;;;;;3.43;51.95;99512.13;5049165;28;20064;-73
2021/01/28 01:59:49;;;;;;;16.63;6.65;;;;;;;3.47;51.88;99513.63;5049014;28;20114;-72
2021/01/28 02:02:20;;;;;;;20.23;8.68;;;;;;;3.49;51.80;99509.16;5049361;28;20049;-72
2021/01/28 02:04:51;;;;;;;18.70;8.50;;;;;;;3.53;52.02;99499.41;5049022;28;20136;-74
2021/01/28 02:07:23;;;;;;;16.77;8.88;;;;;;;3.52;52.08;99492.50;5049927;28;20049;-76
2021/01/28 02:09:50;;;;;;;12.50;8.00;;;;;;;3.44;51.99;99490.34;5051296;28;20049;-69
2021/01/28 02:12:17;;;;;;;14.80;7.25;;;;;;;3.37;52.41;99476.75;5048118;28;20049;-74
2021/01/28 02:14:46;;;;;;;17.80;8.07;;;;;;;3.28;52.34;99476.41;5049848;28;20057;-72
2021/01/28 02:17:16;;;;;;;18.77;9.27;;;;;;;3.16;52.83;99480.56;5050399;28;20044;-76
2021/01/28 02:19:58;;;;;;;20.67;10.57;;;;;;;3.05;53.00;99481.13;5050094;28;20049;-75
2021/01/28 02:22:32;;;;;;;19.48;9.30;;;;;;;3.02;52.73;99479.50;5049759;28;20519;-73
2021/01/28 02:25:06;;;;;;;24.25;10.35;;;;;;;3.00;52.86;99475.31;5049670;28;20060;-71
2021/01/28 02:27:34;;;;;;;20.92;10.13;;;;;;;3.00;52.68;99476.16;5049765;28;20053;-74
2021/01/28 02:30:00;;;;;;;28.42;12.50;;;;;;;3.02;52.54;99478.69;5050194;28;20045;-74
2021/01/28 02:32:26;;;;;;;22.52;9.85;;;;;;;3.02;52.54;99471.69;5051842;28;20049;-72
2021/01/28 02:34:53;;;;;;;18.65;9.25;;;;;;;3.02;52.71;99461.25;5053372;28;20040;-73
2021/01/28 02:37:24;;;;;;;19.27;8.35;;;;;;;2.97;52.56;99454.59;5051982;28;20049;-69
2021/01/28 02:39:53;;;;;;;18.20;9.77;;;;;;;2.89;52.89;99451.56;5051195;28;20597;-71
2021/01/28 02:42:24;;;;;;;24.40;9.13;;;;;;;2.81;53.16;99445.00;5050214;28;20049;-70
2021/01/28 02:44:52;;;;;;;22.02;11.32;;;;;;;2.66;53.08;99445.81;5052607;28;20045;-71
2021/01/28 02:47:18;;;;;;;18.17;8.02;;;;;;;2.57;53.40;99441.09;5056172;28;20067;-73
2021/01/28 02:49:45;;;;;;;12.77;7.53;;;;;;;2.51;53.44;99449.22;5035468;28;20041;-72
2021/01/28 02:52:11;;;;;;;15.65;8.65;;;;;;;2.45;53.22;99448.63;5031311;28;20109;-72
2021/01/28 02:54:42;;;;;;;18.48;8.02;;;;;;;2.45;53.40;99442.59;5048542;28;20045;-72
2021/01/28 02:57:08;;;;;;;31.33;15.65;;;;;;;2.45;53.28;99446.03;5048105;28;20056;-72
2021/01/28 02:59:35;;;;;;;38.92;16.70;;;;;;;2.45;53.36;99446.03;5048858;28;20106;-72
2021/01/28 03:02:06;;;;;;;25.38;11.95;;;;;;;2.48;53.54;99439.78;5049104;28;20056;-76
2021/01/28 03:04:32;;;;;;;22.17;10.20;;;;;;;2.49;53.16;99439.72;5048618;28;20051;-73
2021/01/28 03:06:59;;;;;;;24.40;9.38;;;;;;;2.55;53.07;99437.72;5048884;28;20699;-73
2021/01/28 03:09:26;;;;;;;17.63;8.55;;;;;;;2.57;53.05;99441.91;5048454;28;20041;-73
2021/01/28 03:11:52;;;;;;;18.83;7.65;;;;;;;2.62;52.82;99449.50;5046537;28;20053;-73
2021/01/28 03:14:19;;;;;;;9.63;6.10;;;;;;;2.65;52.82;99438.94;5048674;28;20040;-69
2021/01/28 03:16:46;;;;;;;20.85;8.15;;;;;;;2.67;52.98;99442.28;5048384;28;20048;-72
2021/01/28 03:19:13;;;;;;;14.18;7.00;;;;;;;2.65;52.85;99437.16;5048186;28;20057;-71
2021/01/28 03:21:39;;;;;;;11.45;6.38;;;;;;;2.66;53.08;99438.00;5048403;28;20103;-72
2021/01/28 03:24:06;;;;;;;10.07;5.47;;;;;;;2.67;53.04;99426.66;5047622;28;20503;-72
2021/01/28 03:26:33;;;;;;;10.90;5.75;;;;;;;2.67;53.07;99429.25;5046724;28;20048;-70
2021/01/28 03:28:59;;;;;;;13.07;6.05;;;;;;;2.68;53.08;99423.97;5047753;28;20045;-71
2021/01/28 03:31:26;;;;;;;9.98;5.18;;;;;;;2.69;53.16;99422.19;5047564;28;20358;-70
2021/01/28 03:33:52;;;;;;;11.63;5.32;;;;;;;2.70;52.85;99426.47;5047565;28;20132;-70
2021/01/28 03:36:20;;;;;;;11.98;5.53;;;;;;;2.72;52.74;99416.81;5046133;28;20064;-68
2021/01/28 03:38:46;;;;;;;13.35;6.15;;;;;;;2.70;52.90;99418.63;5046670;28;20053;-71
2021/01/28 03:41:13;;;;;;;13.95;5.97;;;;;;;2.66;53.06;99415.34;5046975;28;20052;-66
2021/01/28 03:43:40;;;;;;;11.85;5.85;;;;;;;2.60;53.30;99414.84;5046613;28;20045;-70
2021/01/28 03:46:06;;;;;;;11.30;6.07;;;;;;;2.56;53.13;99413.34;5047754;28;20053;-72
2021/01/28 03:48:33;;;;;;;15.73;8.20;;;;;;;2.44;53.59;99405.22;5046914;28;20482;-74
2021/01/28 03:50:59;;;;;;;11.18;6.35;;;;;;;2.37;53.59;99403.88;5046212;28;20258;-69
2021/01/28 03:53:26;;;;;;;13.98;6.70;;;;;;;2.35;53.50;99397.06;5047252;28;20041;-71
2021/01/28 03:55:53;;;;;;;14.77;7.07;;;;;;;2.36;53.67;99402.19;5029597;28;20049;-70
2021/01/28 03:58:19;;;;;;;10.55;6.50;;;;;;;2.38;53.53;99405.56;5047358;28;20040;-72
2021/01/28 04:00:46;;;;;;;12.85;8.30;;;;;;;2.41;53.70;99397.59;5046969;28;20167;-70
2021/01/28 04:03:13;;;;;;;14.48;8.40;;;;;;;2.46;53.40;99398.16;5048447;28;20111;-76
2021/01/28 04:05:39;;;;;;;16.10;8.15;;;;;;;2.53;53.51;99396.09;5047814;28;20106;-70
2021/01/28 04:08:06;;;;;;;12.88;7.78;;;;;;;2.57;53.26;99397.59;5046858;28;20625;-69
2021/01/28 04:10:36;;;;;;;14.93;7.78;;;;;;;2.60;53.19;99399.22;5046354;28;20049;-71
2021/01/28 04:13:04;;;;;;;18.40;8.52;;;;;;;2.61;53.25;99386.09;5046109;28;20453;-71
2021/01/28 04:15:31;;;;;;;16.33;7.68;;;;;;;2.64;53.32;99385.09;5045944;28;20049;-71
2021/01/28 04:17:58;;;;;;;11.57;9.40;;;;;;;2.64;53.18;99382.47;5047205;28;20041;-70
2021/01/28 04:20:30;;;;;;;16.35;8.63;;;;;;;2.67;53.16;99377.94;5046405;28;20055;-73
2021/01/28 04:22:57;;;;;;;19.30;8.80;;;;;;;2.69;53.14;99375.25;5029384;28;20182;-72
2021/01/28 04:25:24;;;;;;;18.25;9.32;;;;;;;2.68;53.27;99366.59;5046606;28;20059;-75
2021/01/28 04:27:53;;;;;;;14.10;8.48;;;;;;;2.69;53.40;99362.22;5046341;28;20048;-69
2021/01/28 04:30:25;;;;;;;17.63;8.68;;;;;;;2.67;53.59;99358.84;5046158;28;20079;-74
2021/01/28 04:32:54;;;;;;;25.83;12.35;;;;;;;2.66;53.27;99357.16;5028131;28;20049;-69
2021/01/28 04:35:21;;;;;;;23.92;11.38;;;;;;;2.66;53.40;99351.94;5046328;28;20052;-73
2021/01/28 04:37:48;;;;;;;24.48;12.18;;;;;;;2.68;53.17;99350.09;5045989;28;20085;-74
2021/01/28 04:40:25;;;;;;;25.77;10.70;;;;;;;2.69;53.45;99351.78;5027959;28;20094;-71
2021/01/28 04:42:53;;;;;;;17.70;9.20;;;;;;;2.72;53.30;99345.56;5045175;28;20041;-72
2021/01/28 04:45:22;;;;;;;12.73;7.28;;;;;;;2.74;53.06;99348.91;5047851;28;20044;-74
2021/01/28 04:47:52;;;;;;;10.68;5.55;;;;;;;2.77;53.12;99346.97;5048281;28;20470;-74
2021/01/28 04:50:26;;;;;;;13.82;5.60;;;;;;;2.79;53.21;99337.34;5046627;28;20045;-71
2021/01/28 04:52:57;;;;;;;11.35;6.68;;;;;;;2.79;52.93;99329.50;5029715;28;20053;-73
2021/01/28 04:55:35;;;;;;;11.43;6.20;;;;;;;2.81;52.93;99327.66;5030367;28;20052;-74
2021/01/28 04:58:18;;;;;;;13.70;6.78;;;;;;;2.84;53.05;99316.19;5048220;28;20045;-74
2021/01/28 05:00:45;;;;;;;9.10;6.13;;;;;;;2.82;52.91;99310.22;5052211;28;20060;-72
2021/01/28 05:03:18;;;;;;;12.15;6.00;;;;;;;2.80;52.85;99312.09;5047381;28;20451;-73
2021/01/28 05:05:45;;;;;;;15.48;6.13;;;;;;;2.72;53.07;99303.84;5031415;28;20789;-73
2021/01/28 05:08:11;;;;;;;19.90;8.63;;;;;;;2.70;53.04;99306.53;5048612;28;20049;-77
2021/01/28 05:10:45;;;;;;;16.75;7.32;;;;;;;2.64;53.18;99301.66;5030427;28;20386;-71
2021/01/28 05:13:26;;;;;;;22.95;9.30;;;;;;;2.61;53.26;99297.47;5051343;28;20156;-75
2021/01/28 05:15:53;;;;;;;15.55;7.38;;;;;;;2.59;53.25;99301.06;5053458;28;20135;-74
2021/01/28 05:18:32;;;;;;;30.98;9.05;;;;;;;2.57;53.39;99290.72;5048497;28;20508;-74
2021/01/28 05:21:20;;;;;;;21.70;8.32;;;;;;;2.51;53.32;99291.06;5046904;28;20094;-74
2021/01/28 05:23:47;;;;;;;20.33;8.05;;;;;;;2.44;53.60;99289.72;5041087;28;20041;-70
2021/01/28 05:26:32;;;;;;;13.55;6.55;;;;;;;2.34;53.66;99286.78;5045351;28;20063;-71
2021/01/28 05:29:15;;;;;;;11.77;5.88;;;;;;;2.23;53.84;99279.53;5046513;28;20048;-69
2021/01/28 05:31:42;;;;;;;13.55;6.22;;;;;;;2.15;53.84;99279.09;5045297;28;20060;-73
2021/01/28 05:34:10;;;;;;;9.77;5.13;;;;;;;2.06;54.04;99280.44;5046104;28;20077;-75
2021/01/28 05:36:42;;;;;;;14.05;5.75;;;;;;;2.02;54.04;99275.47;5047013;28;20142;-73
2021/01/28 05:39:25;;;;;;;13.25;7.28;;;;;;;1.94;54.16;99277.63;5045940;28;20398;-71
2021/01/28 05:42:03;;;;;;;20.92;6.45;;;;;;;1.86;54.31;99271.06;5045184;28;20045;-72
2021/01/28 05:44:32;;;;;;;17.63;6.03;;;;;;;1.86;54.44;99271.06;5047472;28;20106;-71
2021/01/28 05:47:03;;;;;;;10.57;6.15;;;;;;;1.83;54.48;99283.41;5046777;28;20098;-73
2021/01/28 05:49:30;;;;;;;13.43;6.88;;;;;;;1.79;54.47;99272.31;5050325;28;20049;-71
2021/01/28 05:51:56;;;;;;;13.27;6.65;;;;;;;1.77;54.77;99268.13;5050534;28;20045;-70
2021/01/28 05:54:27;;;;;;;13.30;6.05;;;;;;;1.77;54.24;99266.34;5060512;28;20029;-71
2021/01/28 05:57:03;;;;;;;12.57;6.25;;;;;;;1.77;54.43;99268.13;5066101;28;20056;-72
2021/01/28 05:59:39;;;;;;;13.13;6.15;;;;;;;1.72;54.38;99260.53;5046639;28;20184;-71
2021/01/28 06:02:19;;;;;;;15.48;7.22;;;;;;;1.68;54.73;99262.44;5062239;28;20127;-75
2021/01/28 06:05:17;;;;;;;13.68;6.57;;;;;;;1.68;54.47;99259.03;5058006;28;20041;-75
2021/01/28 06:08:14;;;;;;;18.02;7.05;;;;;;;1.66;54.51;99250.44;5044229;28;20045;-72
2021/01/28 06:10:49;;;;;;;;;;;;;;;1.80;54.24;99252.31;5046643;28;20049;-71
2021/01/28 06:13:49;;;;;;;16.30;7.55;;;;;;;1.55;54.95;99245.81;5046278;28;19924;-74
2021/01/28 06:16:24;;;;;;;14.75;7.10;;;;;;;1.46;54.68;99241.03;4944438;29;20078;-74
2021/01/28 06:19:31;;;;;;;11.68;6.18;;;;;;;1.40;54.68;99241.38;4947913;29;20075;-73
2021/01/28 06:22:01;;;;;;;15.50;6.88;;;;;;;1.33;54.93;99246.03;4908634;29;20764;-70
2021/01/28 06:24:47;;;;;;;13.75;7.95;;;;;;;1.25;55.06;99237.78;4907224;29;20048;-68
2021/01/28 06:27:47;;;;;;;18.52;6.93;;;;;;;1.23;55.28;99237.03;4908205;29;20201;-72
2021/01/28 06:30:41;;;;;;;13.48;6.50;;;;;;;1.22;55.25;99225.75;4906301;29;20044;-71
2021/01/28 06:33:48;;;;;;;15.98;6.53;;;;;;;1.19;55.26;99225.06;4837762;29;20117;-71
2021/01/28 06:36:24;;;;;;;12.45;5.90;;;;;;;1.19;55.02;99218.13;4817531;29;20050;-71
2021/01/28 06:39:02;;;;;;;11.77;6.75;;;;;;;1.17;54.94;99214.78;4817584;29;20054;-70
2021/01/28 06:41:33;;;;;;;12.10;6.70;;;;;;;1.16;55.18;99200.06;4814410;29;20076;-72
2021/01/28 06:44:06;;;;;;;10.77;5.45;;;;;;;1.18;54.88;99197.41;4818200;29;20453;-69
2021/01/28 06:46:43;;;;;;;10.85;6.85;;;;;;;1.16;54.95;99192.28;4815970;29;20052;-73
2021/01/28 06:49:24;;;;;;;14.50;7.22;;;;;;;1.18;55.18;99193.03;4815386;29;20058;-69
2021/01/28 06:51:58;;;;;;;12.23;6.32;;;;;;;1.19;55.01;99188.66;4814578;29;20057;-66
2021/01/28 06:54:36;;;;;;;16.42;6.57;;;;;;;1.19;55.10;99186.06;4899197;29;20647;-76
2021/01/28 06:57:20;;;;;;;15.82;8.00;;;;;;;1.23;54.97;99190.22;4941366;29;20156;-68
2021/01/28 06:59:55;;;;;;;18.13;9.23;;;;;;;1.26;54.71;99177.88;4946173;29;20267;-70
2021/01/28 07:02:44;;;;;;;16.33;7.88;;;;;;;1.29;54.75;99180.31;4947268;29;20046;-70
2021/01/28 07:05:27;;;;;;;15.93;8.13;;;;;;;1.31;54.71;99173.28;4943637;29;20051;-70
2021/01/28 07:08:01;;;;;;;16.55;7.80;;;;;;;1.33;54.49;99165.38;4944397;29;20051;-70
2021/01/28 07:10:36;;;;;;;14.05;6.55;;;;;;;1.35;54.60;99153.13;5000739;28;20049;-70
2021/01/28 07:13:04;;;;;;;19.27;8.90;;;;;;;1.37;54.67;99153.91;5033014;28;20053;-72
2021/01/28 07:15:34;;;;;;;17.65;8.35;;;;;;;1.37;54.43;99143.50;5048257;28;20113;-76
2021/01/28 07:18:09;;;;;;;18.35;9.82;;;;;;;1.40;54.47;99147.69;5050779;28;20041;-74
2021/01/28 07:20:39;;;;;;;18.73;9.43;;;;;;;1.45;54.68;99137.91;5050172;28;20181;-74
2021/01/28 07:23:23;;;;;;;23.58;9.77;;;;;;;1.44;54.33;99131.00;5051725;28;20044;-79
2021/01/28 07:25:50;;;;;;;17.77;9.60;;;;;;;1.48;54.15;99128.16;5045959;28;20049;-74
2021/01/28 07:28:32;;;;;;;24.52;9.93;;;;;;;1.52;54.46;99118.44;5048874;28;20080;-74
2021/01/28 07:31:40;;;;;;;17.67;9.75;;;;;;;1.58;54.30;99107.69;5042181;28;20126;-75
2021/01/28 07:34:10;;;;;;;22.40;9.18;;;;;;;1.64;54.21;99102.16;4944181;29;20047;-70
2021/01/28 07:36:44;;;;;;;20.45;9.90;;;;;;;1.70;54.22;99090.56;4943634;29;20319;-71
2021/01/28 07:39:44;;;;;;;17.33;8.27;;;;;;;1.83;53.89;99088.13;4942056;29;20634;-71
2021/01/28 07:42:25;;;;;;;14.57;7.38;;;;;;;1.97;53.63;99087.38;4941947;29;20051;-69
2021/01/28 07:44:54;;;;;;;21.08;10.55;;;;;;;2.09;53.53;99082.31;4941469;28;20055;-73
2021/01/28 07:47:48;;;;;;;24.52;10.07;;;;;;;2.23;53.15;99073.72;4941784;29;20719;-69
2021/01/28 07:50:33;;;;;;;17.08;8.80;;;;;;;2.26;52.87;99073.53;4945340;29;20050;-68
2021/01/28 07:53:39;;;;;;;20.60;10.93;;;;;;;2.32;52.95;99077.53;4941372;29;20772;-69
2021/01/28 07:56:57;;;;;;;23.27;10.00;;;;;;;2.45;52.93;99083.75;4950657;29;20125;-71
2021/01/28 07:59:33;;;;;;;22.48;10.57;;;;;;;2.56;52.57;99092.72;4948607;29;20062;-71
2021/01/28 08:02:13;;;;;;;25.67;11.38;;;;;;;2.64;52.44;99078.28;4943662;28;20058;-72
2021/01/28 08:04:44;;;;;;;23.33;11.65;;;;;;;2.76;52.48;99087.16;4943918;29;20047;-71
2021/01/28 08:07:15;;;;;;;22.02;12.05;;;;;;;2.83;52.25;99085.03;4948838;29;20111;-72
2021/01/28 08:09:47;;;;;;;20.67;11.00;;;;;;;2.91;51.91;99077.59;5005157;28;20124;-71
2021/01/28 08:12:22;;;;;;;23.23;12.18;;;;;;;2.99;51.85;99085.81;5047522;28;20051;-68
2021/01/28 08:14:52;;;;;;;24.15;12.18;;;;;;;3.07;51.79;99080.13;5055228;28;20078;-70
2021/01/28 08:17:26;;;;;;;20.95;10.95;;;;;;;3.10;51.49;99079.94;5049015;28;20051;-70
2021/01/28 08:19:52;;;;;;;29.42;14.50;;;;;;;3.15;51.61;99083.13;5049217;28;20369;-70
2021/01/28 08:22:20;;;;;;;20.15;11.60;;;;;;;3.27;51.21;99083.28;5052676;28;20044;-70
2021/01/28 08:24:57;;;;;;;28.50;10.43;;;;;;;3.45;51.28;99076.94;5026902;28;20049;-69
2021/01/28 08:27:30;;;;;;;26.05;13.70;;;;;;;3.52;50.57;99075.63;5043143;28;20393;-71
2021/01/28 08:30:07;;;;;;;19.33;11.13;;;;;;;3.60;50.53;99073.38;5044296;28;20149;-71
2021/01/28 08:32:35;;;;;;;24.83;11.95;;;;;;;3.74;50.35;99069.06;5045004;28;20052;-68
2021/01/28 08:35:06;;;;;;;23.55;10.57;;;;;;;3.90;50.22;99068.91;5040532;28;20052;-71
2021/01/28 08:37:35;;;;;;;25.67;13.13;;;;;;;3.94;49.79;99060.81;5043901;28;20060;-71
2021/01/28 08:40:07;;;;;;;23.58;10.18;;;;;;;3.99;49.70;99057.88;5042696;28;20140;-73
2021/01/28 08:42:33;;;;;;;18.33;10.80;;;;;;;4.09;49.73;99048.50;5037377;28;20045;-69
2021/01/28 08:45:13;;;;;;;22.45;11.05;;;;;;;4.16;49.47;99055.00;5039798;28;20051;-71
2021/01/28 08:47:40;;;;;;;17.70;8.40;;;;;;;4.23;49.07;99052.81;5040469;28;20060;-71
2021/01/28 08:50:14;;;;;;;18.98;11.45;;;;;;;4.27;48.97;99045.63;5019133;28;20540;-71
2021/01/28 08:52:42;;;;;;;20.95;11.82;;;;;;;4.36;48.65;99042.41;5023171;28;20052;-70
2021/01/28 08:55:20;;;;;;;21.60;11.63;;;;;;;4.45;48.77;99033.09;5044142;28;20132;-71
2021/01/28 08:57:47;;;;;;;25.38;11.43;;;;;;;4.48;48.55;99027.69;5043577;28;20055;-69
2021/01/28 09:00:21;;;;;;;20.70;13.43;;;;;;;4.49;48.49;99017.13;5040206;28;20041;-71
2021/01/28 09:02:52;;;;;;;26.70;12.20;;;;;;;4.62;48.10;99009.28;5044972;28;20053;-71
2021/01/28 09:05:23;;;;;;;22.77;10.23;;;;;;;4.62;48.01;99004.03;5043613;28;20055;-73
2021/01/28 09:07:53;;;;;;;30.45;14.07;;;;;;;4.64;48.05;98994.31;5052606;28;20503;-74
2021/01/28 09:10:40;;;;;;;23.60;12.73;;;;;;;4.60;47.74;98991.06;5043926;28;20723;-71
2021/01/28 09:13:18;;;;;;;22.48;12.88;;;;;;;4.68;47.48;98995.81;5052144;28;20059;-71
2021/01/28 09:15:46;;;;;;;23.00;12.27;;;;;;;4.77;47.42;98991.69;5050101;28;20048;-72
2021/01/28 09:18:23;;;;;;;24.70;13.73;;;;;;;4.84;47.41;98989.50;5044420;28;20049;-69
2021/01/28 09:20:56;;;;;;;25.30;12.57;;;;;;;4.84;47.35;98981.66;5047902;28;20101;-72
2021/01/28 09:23:22;;;;;;;19.92;11.15;;;;;;;4.85;47.33;98986.78;5043756;28;20083;-76
2021/01/28 09:26:09;;;;;;;25.50;13.60;;;;;;;4.80;47.29;98975.78;5039740;28;20120;-70
2021/01/28 09:28:36;;;;;;;33.10;15.43;;;;;;;4.88;47.16;98972.63;5039421;28;20049;-69
2021/01/28 09:31:20;;;;;;;31.48;15.90;;;;;;;5.07;47.13;98959.13;5038665;28;20068;-70
2021/01/28 09:33:46;;;;;;;26.45;13.38;;;;;;;5.24;46.71;98956.16;5039954;28;20045;-70
2021/01/28 09:36:18;;;;;;;27.83;14.95;;;;;;;5.23;46.67;98956.25;5038934;28;20049;-69
2021/01/28 09:39:04;;;;;;;36.08;18.23;;;;;;;5.13;47.03;98951.69;5037697;28;20057;-69
2021/01/28 09:41:36;;;;;;;29.23;14.48;;;;;;;5.24;46.74;98950.06;5039653;28;20041;-69
2021/01/28 09:44:04;;;;;;;26.25;14.95;;;;;;;5.35;46.27;98947.53;5041343;28;20045;-69
2021/01/28 09:46:30;;;;;;;28.63;14.75;;;;;;;5.35;46.36;98947.53;5035556;28;20270;-70
2021/01/28 09:49:00;;;;;;;25.02;15.25;;;;;;;5.32;46.35;98940.72;5034294;28;20079;-69
2021/01/28 09:51:30;;;;;;;30.92;15.07;;;;;;;5.30;46.34;98934.75;5036429;28;20049;-71
2021/01/28 09:54:14;;;;;;;24.75;12.07;;;;;;;5.30;46.35;98932.13;5034842;28;20060;-69
2021/01/28 09:56:43;;;;;;;23.95;13.98;;;;;;;5.33;46.10;98936.31;5036580;28;20510;-74
2021/01/28 09:59:10;;;;;;;25.05;13.75;;;;;;;5.33;46.23;98924.06;5037189;28;20053;-71
2021/01/28 10:01:37;;;;;;;25.65;12.82;;;;;;;5.42;46.05;98921.72;5035361;28;20045;-68
2021/01/28 10:04:04;;;;;;;20.15;12.57;;;;;;;5.43;46.11;98908.53;5034663;28;20045;-70
2021/01/28 10:06:31;;;;;;;24.77;13.65;;;;;;;5.40;46.08;98910.53;5038141;28;20044;-70
2021/01/28 10:08:57;;;;;;;23.35;12.52;;;;;;;5.44;46.21;98902.34;5037660;28;20159;-69
2021/01/28 10:11:25;;;;;;;27.30;13.65;;;;;;;5.40;45.85;98892.19;5039871;28;20114;-70
2021/01/28 10:13:52;;;;;;;25.58;13.13;;;;;;;5.46;45.98;98892.59;5040156;28;20463;-72
2021/01/28 10:16:18;;;;;;;24.30;13.65;;;;;;;5.56;45.96;98892.75;5039143;28;20099;-70
2021/01/28 10:18:45;;;;;;;25.17;14.93;;;;;;;5.59;45.70;98889.06;5039442;28;20049;-69
2021/01/28 10:21:12;;;;;;;31.58;14.25;;;;;;;5.56;45.69;98877.03;5038405;28;20066;-67
2021/01/28 10:23:39;;;;;;;22.00;11.77;;;;;;;5.61;45.46;98877.53;5039682;28;20044;-69
2021/01/28 10:26:05;;;;;;;25.08;15.27;;;;;;;5.53;45.35;98867.63;5042898;28;20044;-69
2021/01/28 10:28:32;;;;;;;28.80;15.40;;;;;;;5.59;45.47;98873.38;5039484;28;20049;-68
2021/01/28 10:30:59;;;;;;;22.80;13.80;;;;;;;5.58;45.43;98869.06;5039231;28;20045;-67
2021/01/28 10:33:28;;;;;;;25.50;14.13;;;;;;;5.47;45.58;98870.69;5041448;28;20045;-69
2021/01/28 10:35:56;;;;;;;29.30;16.48;;;;;;;5.42;45.92;98867.59;5041451;28;20052;-68
2021/01/28 10:38:23;;;;;;;24.45;13.80;;;;;;;5.43;45.78;98866.63;5038382;28;20045;-70
2021/01/28 10:40:51;;;;;;;28.08;14.80;;;;;;;5.42;45.74;98861.50;5042098;28;20053;-68
2021/01/28 10:43:17;;;;;;;26.67;15.30;;;;;;;5.44;45.76;98863.06;5036871;28;20078;-69
2021/01/28 10:45:44;;;;;;;24.77;15.30;;;;;;;5.39;45.78;98867.81;5037348;28;20056;-67
2021/01/28 10:48:11;;;;;;;23.60;13.10;;;;;;;5.33;46.33;98858.63;5039679;28;20053;-68
2021/01/28 10:50:38;;;;;;;29.35;17.25;;;;;;;5.14;46.84;98858.28;5038042;28;20045;-72
2021/01/28 10:53:05;;;;;;;28.25;15.55;;;;;;;5.11;47.14;98848.03;5037801;28;20049;-68
2021/01/28 10:55:33;;;;;;;23.63;11.90;;;;;;;5.10;47.42;98838.53;5040133;28;20068;-68
2021/01/28 10:57:59;;;;;;;31.42;16.70;;;;;;;5.02;47.84;98833.81;5038113;28;20075;-69
2021/01/28 11:00:26;;;;;;;28.02;15.43;;;;;;;4.93;48.33;98824.03;5037666;28;20221;-69
2021/01/28 11:02:53;;;;;;;27.83;13.73;;;;;;;4.96;48.31;98813.34;5039648;28;20045;-70
2021/01/28 11:05:23;;;;;;;28.23;15.73;;;;;;;4.98;48.48;98809.66;5037896;28;20132;-70
2021/01/28 11:07:50;;;;;;;29.08;15.85;;;;;;;5.03;48.42;98809.34;5039977;28;20076;-68
2021/01/28 11:10:18;;;;;;;31.65;17.23;;;;;;;5.07;48.56;98795.06;5039290;28;20124;-68
2021/01/28 11:12:44;;;;;;;26.13;15.18;;;;;;;5.09;48.47;98790.56;5035462;28;20049;-67
2021/01/28 11:15:12;;;;;;;27.45;16.05;;;;;;;5.16;48.64;98785.72;5039240;28;20052;-68
2021/01/28 11:17:40;;;;;;;28.35;15.43;;;;;;;5.27;48.44;98780.50;5039495;28;20053;-68
2021/01/28 11:20:10;;;;;;;32.63;14.32;;;;;;;5.33;48.44;98773.97;5037907;28;20045;-69
2021/01/28 11:22:38;;;;;;;31.13;14.45;;;;;;;5.37;48.37;98778.06;5038136;28;20049;-68
2021/01/28 11:25:06;;;;;;;26.98;16.00;;;;;;;5.40;48.24;98767.34;5039257;28;20052;-70
2021/01/28 11:27:33;;;;;;;30.38;18.65;;;;;;;5.40;48.33;98761.28;5040687;28;20045;-69
2021/01/28 11:30:00;;;;;;;32.78;18.23;;;;;;;5.38;48.40;98758.78;5039630;28;20041;-72
2021/01/28 11:32:26;;;;;;;36.17;18.65;;;;;;;5.28;48.47;98755.19;5039461;28;20620;-69
2021/01/28 11:34:56;;;;;;;24.60;14.27;;;;;;;5.09;48.83;98745.25;5041930;28;20045;-69
2021/01/28 11:37:24;;;;;;;24.98;12.93;;;;;;;4.98;49.05;98741.63;5028555;28;20106;-70
2021/01/28 11:39:51;;;;;;;37.05;18.45;;;;;;;4.93;49.29;98735.06;5043527;28;20049;-68
2021/01/28 11:42:18;;;;;;;32.65;16.65;;;;;;;4.93;49.42;98727.22;5039296;28;20051;-68
2021/01/28 11:44:45;;;;;;;37.10;19.42;;;;;;;4.87;49.53;98722.44;5045988;28;20046;-69
2021/01/28 11:47:11;;;;;;;34.22;20.02;;;;;;;4.84;49.82;98722.66;4984013;28;20053;-71
2021/01/28 11:49:38;;;;;;;30.40;16.30;;;;;;;4.88;49.88;98711.88;5019980;28;20056;-72